sensor_id;sensor_type;location;lat;lon;timestamp;P1;durP1;ratioP1;P2;durP2;ratioP2
12665;SDS011;58531;59.050;17.416;2023-09-19T00:01:33;15.03;;;8.93;;
12665;SDS011;58531;59.050;17.416;2023-09-19T00:04:01;13.77;;;9.03;;
12665;SDS011;58531;59.050;17.416;2023-09-19T00:06:28;16.07;;;10.13;;
12665;SDS011;58531;59.050;17.416;2023-09-19T00:08:56;12.63;;;9.83;;
12665;SDS011;58531;59.050;17.416;2023-09-19T00:11:25;14.43;;;9.53;;
12665;SDS011;58531;59.050;17.416;2023-09-19T00:13:52;12.07;;;10.80;;
12665;SDS011;58531;59.050;17.416;2023-09-19T00:16:19;15.10;;;10.63;;
12665;SDS011;58531;59.050;17.416;2023-09-19T00:18:46;14.17;;;10.57;;
12665;SDS011;58531;59.050;17.416;2023-09-19T00:21:15;17.57;;;11.73;;
12665;SDS011;58531;59.050;17.416;2023-09-19T00:23:42;16.70;;;12.40;;
12665;SDS011;58531;59.050;17.416;2023-09-19T00:26:09;17.30;;;12.37;;
12665;SDS011;58531;59.050;17.416;2023-09-19T00:28:35;19.30;;;12.57;;
12665;SDS011;58531;59.050;17.416;2023-09-19T00:31:03;15.10;;;11.87;;
12665;SDS011;58531;59.050;17.416;2023-09-19T00:33:30;16.13;;;13.47;;
12665;SDS011;58531;59.050;17.416;2023-09-19T00:35:57;17.00;;;13.47;;
12665;SDS011;58531;59.050;17.416;2023-09-19T00:38:26;19.70;;;13.23;;
12665;SDS011;58531;59.050;17.416;2023-09-19T00:40:53;15.93;;;13.13;;
12665;SDS011;58531;59.050;17.416;2023-09-19T00:43:22;17.03;;;13.77;;
12665;SDS011;58531;59.050;17.416;2023-09-19T00:45:50;18.50;;;13.63;;
12665;SDS011;58531;59.050;17.416;2023-09-19T00:48:19;19.77;;;14.33;;
12665;SDS011;58531;59.050;17.416;2023-09-19T00:50:47;17.87;;;14.33;;
12665;SDS011;58531;59.050;17.416;2023-09-19T00:53:15;22.23;;;16.27;;
12665;SDS011;58531;59.050;17.416;2023-09-19T00:55:49;23.93;;;15.47;;
12665;SDS011;58531;59.050;17.416;2023-09-19T00:58:17;22.53;;;16.03;;
12665;SDS011;58531;59.050;17.416;2023-09-19T01:00:44;19.93;;;16.87;;
12665;SDS011;58531;59.050;17.416;2023-09-19T01:03:12;22.07;;;15.40;;
12665;SDS011;58531;59.050;17.416;2023-09-19T01:05:39;21.77;;;16.47;;
12665;SDS011;58531;59.050;17.416;2023-09-19T01:08:07;23.00;;;16.57;;
12665;SDS011;58531;59.050;17.416;2023-09-19T01:10:36;21.23;;;15.97;;
12665;SDS011;58531;59.050;17.416;2023-09-19T01:13:26;21.13;;;16.60;;
12665;SDS011;58531;59.050;17.416;2023-09-19T01:16:03;21.90;;;15.87;;
12665;SDS011;58531;59.050;17.416;2023-09-19T01:18:47;25.13;;;17.67;;
12665;SDS011;58531;59.050;17.416;2023-09-19T01:21:21;26.50;;;17.80;;
12665;SDS011;58531;59.050;17.416;2023-09-19T01:24:16;24.97;;;18.77;;
12665;SDS011;58531;59.050;17.416;2023-09-19T01:27:17;24.73;;;18.83;;
12665;SDS011;58531;59.050;17.416;2023-09-19T01:32:32;21.13;;;18.63;;
12665;SDS011;58531;59.050;17.416;2023-09-19T01:35:00;22.90;;;19.17;;
12665;SDS011;58531;59.050;17.416;2023-09-19T01:37:30;27.50;;;19.90;;
12665;SDS011;58531;59.050;17.416;2023-09-19T01:39:58;25.43;;;19.97;;
12665;SDS011;58531;59.050;17.416;2023-09-19T01:42:37;24.33;;;20.07;;
12665;SDS011;58531;59.050;17.416;2023-09-19T01:45:12;23.73;;;19.33;;
12665;SDS011;58531;59.050;17.416;2023-09-19T01:47:46;26.67;;;20.80;;
12665;SDS011;58531;59.050;17.416;2023-09-19T01:50:17;27.97;;;20.63;;
12665;SDS011;58531;59.050;17.416;2023-09-19T01:52:54;26.60;;;21.93;;
12665;SDS011;58531;59.050;17.416;2023-09-19T01:55:26;28.37;;;21.63;;
12665;SDS011;58531;59.050;17.416;2023-09-19T01:57:58;27.73;;;21.20;;
12665;SDS011;58531;59.050;17.416;2023-09-19T02:00:32;30.70;;;21.87;;
12665;SDS011;58531;59.050;17.416;2023-09-19T02:03:00;29.47;;;21.73;;
12665;SDS011;58531;59.050;17.416;2023-09-19T02:05:28;28.87;;;22.43;;
12665;SDS011;58531;59.050;17.416;2023-09-19T02:07:55;32.47;;;23.50;;
12665;SDS011;58531;59.050;17.416;2023-09-19T02:10:23;31.90;;;23.40;;
12665;SDS011;58531;59.050;17.416;2023-09-19T02:12:50;28.80;;;23.47;;
12665;SDS011;58531;59.050;17.416;2023-09-19T02:15:17;32.30;;;24.27;;
12665;SDS011;58531;59.050;17.416;2023-09-19T02:17:46;29.23;;;21.60;;
12665;SDS011;58531;59.050;17.416;2023-09-19T02:20:13;34.27;;;24.17;;
12665;SDS011;58531;59.050;17.416;2023-09-19T02:22:41;32.80;;;23.90;;
12665;SDS011;58531;59.050;17.416;2023-09-19T02:25:09;31.50;;;23.07;;
12665;SDS011;58531;59.050;17.416;2023-09-19T02:27:36;32.20;;;23.80;;
12665;SDS011;58531;59.050;17.416;2023-09-19T02:30:05;37.63;;;24.57;;
12665;SDS011;58531;59.050;17.416;2023-09-19T02:32:33;34.03;;;22.50;;
12665;SDS011;58531;59.050;17.416;2023-09-19T02:35:05;34.73;;;23.73;;
12665;SDS011;58531;59.050;17.416;2023-09-19T02:37:36;36.57;;;24.67;;
12665;SDS011;58531;59.050;17.416;2023-09-19T02:40:03;29.17;;;23.17;;
12665;SDS011;58531;59.050;17.416;2023-09-19T02:42:38;31.50;;;22.90;;
12665;SDS011;58531;59.050;17.416;2023-09-19T02:45:06;33.37;;;23.07;;
12665;SDS011;58531;59.050;17.416;2023-09-19T02:47:34;34.43;;;23.37;;
12665;SDS011;58531;59.050;17.416;2023-09-19T02:50:01;31.73;;;24.73;;
12665;SDS011;58531;59.050;17.416;2023-09-19T02:52:30;35.70;;;24.80;;
12665;SDS011;58531;59.050;17.416;2023-09-19T02:54:57;36.00;;;24.33;;
12665;SDS011;58531;59.050;17.416;2023-09-19T02:57:26;32.83;;;24.00;;
12665;SDS011;58531;59.050;17.416;2023-09-19T02:59:53;28.00;;;23.33;;
12665;SDS011;58531;59.050;17.416;2023-09-19T03:02:20;32.30;;;24.50;;
12665;SDS011;58531;59.050;17.416;2023-09-19T03:04:49;28.73;;;24.10;;
12665;SDS011;58531;59.050;17.416;2023-09-19T03:07:16;33.07;;;24.47;;
12665;SDS011;58531;59.050;17.416;2023-09-19T03:09:44;30.33;;;24.23;;
12665;SDS011;58531;59.050;17.416;2023-09-19T03:12:11;37.10;;;24.33;;
12665;SDS011;58531;59.050;17.416;2023-09-19T03:14:41;32.63;;;23.60;;
12665;SDS011;58531;59.050;17.416;2023-09-19T03:17:07;31.63;;;25.60;;
12665;SDS011;58531;59.050;17.416;2023-09-19T03:19:34;33.83;;;25.37;;
12665;SDS011;58531;59.050;17.416;2023-09-19T03:22:02;37.93;;;26.00;;
12665;SDS011;58531;59.050;17.416;2023-09-19T03:24:29;36.47;;;26.20;;
12665;SDS011;58531;59.050;17.416;2023-09-19T03:26:58;37.43;;;26.43;;
12665;SDS011;58531;59.050;17.416;2023-09-19T03:29:25;33.27;;;24.93;;
12665;SDS011;58531;59.050;17.416;2023-09-19T03:31:52;36.47;;;25.33;;
12665;SDS011;58531;59.050;17.416;2023-09-19T03:34:19;34.30;;;26.83;;
12665;SDS011;58531;59.050;17.416;2023-09-19T03:36:46;37.50;;;26.17;;
12665;SDS011;58531;59.050;17.416;2023-09-19T03:39:13;31.97;;;26.83;;
12665;SDS011;58531;59.050;17.416;2023-09-19T03:41:41;37.60;;;26.07;;
12665;SDS011;58531;59.050;17.416;2023-09-19T03:44:09;39.00;;;25.83;;
12665;SDS011;58531;59.050;17.416;2023-09-19T03:46:36;37.00;;;25.90;;
12665;SDS011;58531;59.050;17.416;2023-09-19T03:49:03;33.13;;;26.33;;
12665;SDS011;58531;59.050;17.416;2023-09-19T03:51:30;35.80;;;26.53;;
12665;SDS011;58531;59.050;17.416;2023-09-19T03:53:59;34.03;;;25.03;;
12665;SDS011;58531;59.050;17.416;2023-09-19T03:56:26;40.40;;;26.40;;
12665;SDS011;58531;59.050;17.416;2023-09-19T03:58:53;38.33;;;27.07;;
12665;SDS011;58531;59.050;17.416;2023-09-19T04:01:22;37.40;;;27.77;;
12665;SDS011;58531;59.050;17.416;2023-09-19T04:03:48;42.70;;;28.07;;
12665;SDS011;58531;59.050;17.416;2023-09-19T04:06:17;35.60;;;26.57;;
12665;SDS011;58531;59.050;17.416;2023-09-19T04:08:44;39.37;;;27.23;;
12665;SDS011;58531;59.050;17.416;2023-09-19T04:11:11;37.77;;;27.40;;
12665;SDS011;58531;59.050;17.416;2023-09-19T04:13:38;41.27;;;28.33;;
12665;SDS011;58531;59.050;17.416;2023-09-19T04:16:05;40.77;;;27.80;;
12665;SDS011;58531;59.050;17.416;2023-09-19T04:18:33;36.20;;;26.57;;
12665;SDS011;58531;59.050;17.416;2023-09-19T04:21:03;38.50;;;28.40;;
12665;SDS011;58531;59.050;17.416;2023-09-19T04:23:30;34.53;;;26.93;;
12665;SDS011;58531;59.050;17.416;2023-09-19T04:25:57;38.27;;;29.20;;
12665;SDS011;58531;59.050;17.416;2023-09-19T04:28:25;36.27;;;27.93;;
12665;SDS011;58531;59.050;17.416;2023-09-19T04:30:52;38.57;;;27.70;;
12665;SDS011;58531;59.050;17.416;2023-09-19T04:33:20;43.50;;;29.10;;
12665;SDS011;58531;59.050;17.416;2023-09-19T04:35:50;40.70;;;30.60;;
12665;SDS011;58531;59.050;17.416;2023-09-19T04:38:17;38.20;;;28.67;;
12665;SDS011;58531;59.050;17.416;2023-09-19T04:40:44;36.57;;;28.43;;
12665;SDS011;58531;59.050;17.416;2023-09-19T04:43:11;36.67;;;26.97;;
12665;SDS011;58531;59.050;17.416;2023-09-19T04:45:38;39.53;;;29.23;;
12665;SDS011;58531;59.050;17.416;2023-09-19T04:48:05;37.73;;;27.33;;
12665;SDS011;58531;59.050;17.416;2023-09-19T04:50:34;33.83;;;28.17;;
12665;SDS011;58531;59.050;17.416;2023-09-19T04:53:03;37.17;;;27.27;;
12665;SDS011;58531;59.050;17.416;2023-09-19T04:55:30;36.17;;;26.50;;
12665;SDS011;58531;59.050;17.416;2023-09-19T04:57:57;33.27;;;26.27;;
12665;SDS011;58531;59.050;17.416;2023-09-19T05:00:24;32.30;;;25.33;;
12665;SDS011;58531;59.050;17.416;2023-09-19T05:02:55;35.27;;;26.83;;
12665;SDS011;58531;59.050;17.416;2023-09-19T05:05:23;33.50;;;26.03;;
12665;SDS011;58531;59.050;17.416;2023-09-19T05:07:51;33.03;;;26.73;;
12665;SDS011;58531;59.050;17.416;2023-09-19T05:10:20;35.90;;;25.37;;
12665;SDS011;58531;59.050;17.416;2023-09-19T05:12:47;36.07;;;26.37;;
12665;SDS011;58531;59.050;17.416;2023-09-19T05:15:16;36.93;;;26.57;;
12665;SDS011;58531;59.050;17.416;2023-09-19T05:17:47;31.60;;;24.27;;
12665;SDS011;58531;59.050;17.416;2023-09-19T05:20:15;32.37;;;24.57;;
12665;SDS011;58531;59.050;17.416;2023-09-19T05:22:49;31.90;;;24.00;;
12665;SDS011;58531;59.050;17.416;2023-09-19T05:25:17;31.20;;;23.20;;
12665;SDS011;58531;59.050;17.416;2023-09-19T05:27:46;26.30;;;22.50;;
12665;SDS011;58531;59.050;17.416;2023-09-19T05:30:13;28.40;;;23.27;;
12665;SDS011;58531;59.050;17.416;2023-09-19T05:32:41;29.90;;;22.97;;
12665;SDS011;58531;59.050;17.416;2023-09-19T05:35:08;31.63;;;24.57;;
12665;SDS011;58531;59.050;17.416;2023-09-19T05:37:38;26.10;;;23.27;;
12665;SDS011;58531;59.050;17.416;2023-09-19T05:40:05;31.03;;;22.30;;
12665;SDS011;58531;59.050;17.416;2023-09-19T05:42:35;26.90;;;21.33;;
12665;SDS011;58531;59.050;17.416;2023-09-19T05:45:05;23.57;;;21.13;;
12665;SDS011;58531;59.050;17.416;2023-09-19T05:47:32;34.00;;;22.07;;
12665;SDS011;58531;59.050;17.416;2023-09-19T05:49:59;28.97;;;21.60;;
12665;SDS011;58531;59.050;17.416;2023-09-19T05:52:26;26.60;;;20.63;;
12665;SDS011;58531;59.050;17.416;2023-09-19T05:54:53;24.00;;;20.30;;
12665;SDS011;58531;59.050;17.416;2023-09-19T05:57:21;23.10;;;19.33;;
12665;SDS011;58531;59.050;17.416;2023-09-19T05:59:49;21.90;;;19.60;;
12665;SDS011;58531;59.050;17.416;2023-09-19T06:02:18;23.57;;;19.40;;
12665;SDS011;58531;59.050;17.416;2023-09-19T06:04:45;24.43;;;18.83;;
12665;SDS011;58531;59.050;17.416;2023-09-19T06:07:12;21.90;;;18.20;;
12665;SDS011;58531;59.050;17.416;2023-09-19T06:09:38;18.03;;;16.13;;
12665;SDS011;58531;59.050;17.416;2023-09-19T06:12:06;18.80;;;16.80;;
12665;SDS011;58531;59.050;17.416;2023-09-19T06:14:33;20.33;;;17.00;;
12665;SDS011;58531;59.050;17.416;2023-09-19T06:17:00;19.83;;;16.03;;
12665;SDS011;58531;59.050;17.416;2023-09-19T06:19:28;21.30;;;16.37;;
12665;SDS011;58531;59.050;17.416;2023-09-19T06:21:54;20.07;;;16.17;;
12665;SDS011;58531;59.050;17.416;2023-09-19T06:24:21;20.73;;;15.83;;
12665;SDS011;58531;59.050;17.416;2023-09-19T06:26:48;19.77;;;15.17;;
12665;SDS011;58531;59.050;17.416;2023-09-19T06:29:15;19.33;;;16.37;;
12665;SDS011;58531;59.050;17.416;2023-09-19T06:31:42;21.73;;;16.40;;
12665;SDS011;58531;59.050;17.416;2023-09-19T06:34:09;20.40;;;15.23;;
12665;SDS011;58531;59.050;17.416;2023-09-19T06:36:37;16.57;;;14.50;;
12665;SDS011;58531;59.050;17.416;2023-09-19T06:39:06;17.93;;;16.03;;
12665;SDS011;58531;59.050;17.416;2023-09-19T06:41:36;18.80;;;15.47;;
12665;SDS011;58531;59.050;17.416;2023-09-19T06:44:03;19.03;;;16.10;;
12665;SDS011;58531;59.050;17.416;2023-09-19T06:46:31;18.57;;;14.83;;
12665;SDS011;58531;59.050;17.416;2023-09-19T06:49:00;17.80;;;15.40;;
12665;SDS011;58531;59.050;17.416;2023-09-19T06:51:28;17.53;;;14.67;;
12665;SDS011;58531;59.050;17.416;2023-09-19T06:53:57;17.17;;;14.93;;
12665;SDS011;58531;59.050;17.416;2023-09-19T06:56:24;16.83;;;14.63;;
12665;SDS011;58531;59.050;17.416;2023-09-19T06:58:51;17.17;;;15.13;;
12665;SDS011;58531;59.050;17.416;2023-09-19T07:01:18;18.13;;;14.50;;
12665;SDS011;58531;59.050;17.416;2023-09-19T07:03:45;15.93;;;14.20;;
12665;SDS011;58531;59.050;17.416;2023-09-19T07:06:12;15.27;;;13.67;;
12665;SDS011;58531;59.050;17.416;2023-09-19T07:08:38;17.63;;;13.17;;
12665;SDS011;58531;59.050;17.416;2023-09-19T07:11:06;15.13;;;13.33;;
12665;SDS011;58531;59.050;17.416;2023-09-19T07:13:33;13.30;;;11.90;;
12665;SDS011;58531;59.050;17.416;2023-09-19T07:16:00;14.37;;;12.80;;
12665;SDS011;58531;59.050;17.416;2023-09-19T07:18:27;14.87;;;12.37;;
12665;SDS011;58531;59.050;17.416;2023-09-19T07:20:56;12.43;;;11.23;;
12665;SDS011;58531;59.050;17.416;2023-09-19T07:23:26;12.70;;;11.40;;
12665;SDS011;58531;59.050;17.416;2023-09-19T07:25:56;15.10;;;12.53;;
12665;SDS011;58531;59.050;17.416;2023-09-19T07:28:25;15.70;;;12.53;;
12665;SDS011;58531;59.050;17.416;2023-09-19T07:30:53;14.63;;;13.10;;
12665;SDS011;58531;59.050;17.416;2023-09-19T07:33:20;16.00;;;13.13;;
12665;SDS011;58531;59.050;17.416;2023-09-19T07:35:47;14.57;;;11.87;;
12665;SDS011;58531;59.050;17.416;2023-09-19T07:38:14;16.37;;;12.07;;
12665;SDS011;58531;59.050;17.416;2023-09-19T07:40:42;13.67;;;12.27;;
12665;SDS011;58531;59.050;17.416;2023-09-19T07:43:09;12.83;;;11.40;;
12665;SDS011;58531;59.050;17.416;2023-09-19T07:45:37;13.47;;;11.83;;
12665;SDS011;58531;59.050;17.416;2023-09-19T07:48:04;14.53;;;11.97;;
12665;SDS011;58531;59.050;17.416;2023-09-19T07:50:38;15.23;;;12.07;;
12665;SDS011;58531;59.050;17.416;2023-09-19T07:53:05;14.83;;;11.83;;
12665;SDS011;58531;59.050;17.416;2023-09-19T07:55:32;13.77;;;10.93;;
12665;SDS011;58531;59.050;17.416;2023-09-19T07:57:59;13.00;;;11.60;;
12665;SDS011;58531;59.050;17.416;2023-09-19T08:00:28;17.00;;;12.73;;
12665;SDS011;58531;59.050;17.416;2023-09-19T08:02:59;14.73;;;12.23;;
12665;SDS011;58531;59.050;17.416;2023-09-19T08:05:26;14.23;;;11.93;;
12665;SDS011;58531;59.050;17.416;2023-09-19T08:07:53;13.93;;;12.57;;
12665;SDS011;58531;59.050;17.416;2023-09-19T08:10:21;16.17;;;12.40;;
12665;SDS011;58531;59.050;17.416;2023-09-19T08:12:50;16.53;;;13.03;;
12665;SDS011;58531;59.050;17.416;2023-09-19T08:15:21;13.47;;;12.07;;
12665;SDS011;58531;59.050;17.416;2023-09-19T08:17:48;14.40;;;12.93;;
12665;SDS011;58531;59.050;17.416;2023-09-19T08:20:16;13.80;;;12.20;;
12665;SDS011;58531;59.050;17.416;2023-09-19T08:22:44;14.80;;;11.90;;
12665;SDS011;58531;59.050;17.416;2023-09-19T08:25:14;12.60;;;10.97;;
12665;SDS011;58531;59.050;17.416;2023-09-19T08:27:42;12.00;;;10.80;;
12665;SDS011;58531;59.050;17.416;2023-09-19T08:30:13;12.50;;;11.20;;
12665;SDS011;58531;59.050;17.416;2023-09-19T08:32:39;13.50;;;11.30;;
12665;SDS011;58531;59.050;17.416;2023-09-19T08:35:07;14.63;;;10.87;;
12665;SDS011;58531;59.050;17.416;2023-09-19T08:37:37;11.57;;;10.23;;
12665;SDS011;58531;59.050;17.416;2023-09-19T08:40:04;10.93;;;9.00;;
12665;SDS011;58531;59.050;17.416;2023-09-19T08:42:46;9.87;;;8.87;;
12665;SDS011;58531;59.050;17.416;2023-09-19T08:45:15;10.37;;;9.00;;
12665;SDS011;58531;59.050;17.416;2023-09-19T08:47:44;9.80;;;8.70;;
12665;SDS011;58531;59.050;17.416;2023-09-19T08:50:15;9.67;;;8.30;;
12665;SDS011;58531;59.050;17.416;2023-09-19T08:52:47;9.23;;;8.23;;
12665;SDS011;58531;59.050;17.416;2023-09-19T08:55:18;11.43;;;8.47;;
12665;SDS011;58531;59.050;17.416;2023-09-19T08:57:47;9.20;;;8.30;;
12665;SDS011;58531;59.050;17.416;2023-09-19T09:00:16;9.30;;;8.40;;
12665;SDS011;58531;59.050;17.416;2023-09-19T09:02:45;10.07;;;7.90;;
12665;SDS011;58531;59.050;17.416;2023-09-19T09:05:14;9.73;;;8.23;;
12665;SDS011;58531;59.050;17.416;2023-09-19T09:07:49;10.83;;;7.30;;
12665;SDS011;58531;59.050;17.416;2023-09-19T09:10:17;9.77;;;7.63;;
12665;SDS011;58531;59.050;17.416;2023-09-19T09:12:47;7.47;;;6.80;;
12665;SDS011;58531;59.050;17.416;2023-09-19T09:15:15;8.07;;;7.27;;
12665;SDS011;58531;59.050;17.416;2023-09-19T09:17:46;7.90;;;7.10;;
12665;SDS011;58531;59.050;17.416;2023-09-19T09:20:14;8.20;;;7.00;;
12665;SDS011;58531;59.050;17.416;2023-09-19T09:22:49;7.73;;;6.53;;
12665;SDS011;58531;59.050;17.416;2023-09-19T09:25:17;8.40;;;6.87;;
12665;SDS011;58531;59.050;17.416;2023-09-19T09:27:45;6.57;;;6.07;;
12665;SDS011;58531;59.050;17.416;2023-09-19T09:30:32;9.07;;;6.13;;
12665;SDS011;58531;59.050;17.416;2023-09-19T09:33:07;6.57;;;5.97;;
12665;SDS011;58531;59.050;17.416;2023-09-19T09:35:36;6.60;;;6.00;;
12665;SDS011;58531;59.050;17.416;2023-09-19T09:38:05;7.03;;;6.30;;
12665;SDS011;58531;59.050;17.416;2023-09-19T09:40:45;6.47;;;5.73;;
12665;SDS011;58531;59.050;17.416;2023-09-19T09:43:27;6.47;;;4.73;;
12665;SDS011;58531;59.050;17.416;2023-09-19T09:46:12;5.37;;;4.87;;
12665;SDS011;58531;59.050;17.416;2023-09-19T09:48:57;6.33;;;5.07;;
12665;SDS011;58531;59.050;17.416;2023-09-19T09:51:41;7.03;;;5.47;;
12665;SDS011;58531;59.050;17.416;2023-09-19T09:54:14;6.43;;;4.97;;
12665;SDS011;58531;59.050;17.416;2023-09-19T09:56:52;8.87;;;5.10;;
12665;SDS011;58531;59.050;17.416;2023-09-19T10:02:16;5.13;;;4.60;;
12665;SDS011;58531;59.050;17.416;2023-09-19T10:04:53;4.80;;;4.40;;
12665;SDS011;58531;59.050;17.416;2023-09-19T10:07:33;6.60;;;4.17;;
12665;SDS011;58531;59.050;17.416;2023-09-19T10:10:05;6.13;;;4.30;;
12665;SDS011;58531;59.050;17.416;2023-09-19T10:12:43;5.67;;;3.80;;
12665;SDS011;58531;59.050;17.416;2023-09-19T10:15:15;4.53;;;3.57;;
12665;SDS011;58531;59.050;17.416;2023-09-19T10:17:45;4.50;;;3.23;;
12665;SDS011;58531;59.050;17.416;2023-09-19T10:20:13;3.87;;;3.50;;
12665;SDS011;58531;59.050;17.416;2023-09-19T10:22:58;6.47;;;3.10;;
12665;SDS011;58531;59.050;17.416;2023-09-19T10:25:28;3.37;;;3.07;;
12665;SDS011;58531;59.050;17.416;2023-09-19T10:27:56;4.20;;;2.80;;
12665;SDS011;58531;59.050;17.416;2023-09-19T10:30:25;2.43;;;2.23;;
12665;SDS011;58531;59.050;17.416;2023-09-19T10:32:57;4.00;;;2.23;;
12665;SDS011;58531;59.050;17.416;2023-09-19T10:35:27;3.17;;;2.00;;
12665;SDS011;58531;59.050;17.416;2023-09-19T10:37:56;2.63;;;1.70;;
12665;SDS011;58531;59.050;17.416;2023-09-19T10:40:27;2.63;;;1.67;;
12665;SDS011;58531;59.050;17.416;2023-09-19T10:43:00;2.10;;;1.90;;
12665;SDS011;58531;59.050;17.416;2023-09-19T10:45:32;2.63;;;1.57;;
12665;SDS011;58531;59.050;17.416;2023-09-19T10:48:04;2.80;;;1.97;;
12665;SDS011;58531;59.050;17.416;2023-09-19T10:50:33;3.93;;;1.40;;
12665;SDS011;58531;59.050;17.416;2023-09-19T10:53:04;4.00;;;1.43;;
12665;SDS011;58531;59.050;17.416;2023-09-19T10:55:34;3.70;;;1.33;;
12665;SDS011;58531;59.050;17.416;2023-09-19T10:58:02;1.50;;;1.30;;
12665;SDS011;58531;59.050;17.416;2023-09-19T11:00:52;2.20;;;1.67;;
12665;SDS011;58531;59.050;17.416;2023-09-19T11:03:20;2.20;;;1.23;;
12665;SDS011;58531;59.050;17.416;2023-09-19T11:08:57;1.80;;;1.40;;
12665;SDS011;58531;59.050;17.416;2023-09-19T11:11:43;3.37;;;1.47;;
12665;SDS011;58531;59.050;17.416;2023-09-19T11:14:30;3.40;;;1.23;;
12665;SDS011;58531;59.050;17.416;2023-09-19T11:20:20;1.60;;;1.30;;
12665;SDS011;58531;59.050;17.416;2023-09-19T11:25:56;3.20;;;1.53;;
12665;SDS011;58531;59.050;17.416;2023-09-19T11:28:34;2.77;;;1.10;;
12665;SDS011;58531;59.050;17.416;2023-09-19T11:34:43;1.40;;;1.17;;
12665;SDS011;58531;59.050;17.416;2023-09-19T11:40:36;3.93;;;1.70;;
12665;SDS011;58531;59.050;17.416;2023-09-19T11:46:04;2.00;;;1.20;;
12665;SDS011;58531;59.050;17.416;2023-09-19T11:48:31;5.13;;;1.60;;
12665;SDS011;58531;59.050;17.416;2023-09-19T11:51:00;1.87;;;1.37;;
12665;SDS011;58531;59.050;17.416;2023-09-19T11:53:32;3.77;;;1.43;;
12665;SDS011;58531;59.050;17.416;2023-09-19T11:56:01;4.63;;;1.33;;
12665;SDS011;58531;59.050;17.416;2023-09-19T11:58:29;3.67;;;1.47;;
12665;SDS011;58531;59.050;17.416;2023-09-19T12:00:59;3.77;;;1.30;;
12665;SDS011;58531;59.050;17.416;2023-09-19T12:03:29;3.20;;;1.30;;
12665;SDS011;58531;59.050;17.416;2023-09-19T12:05:58;2.73;;;1.40;;
12665;SDS011;58531;59.050;17.416;2023-09-19T12:08:27;2.10;;;1.40;;
12665;SDS011;58531;59.050;17.416;2023-09-19T12:10:55;5.90;;;1.33;;
12665;SDS011;58531;59.050;17.416;2023-09-19T12:13:23;3.17;;;1.30;;
12665;SDS011;58531;59.050;17.416;2023-09-19T12:15:50;2.93;;;1.53;;
12665;SDS011;58531;59.050;17.416;2023-09-19T12:18:29;4.60;;;1.50;;
12665;SDS011;58531;59.050;17.416;2023-09-19T12:20:56;2.23;;;1.30;;
12665;SDS011;58531;59.050;17.416;2023-09-19T12:23:24;1.57;;;1.37;;
12665;SDS011;58531;59.050;17.416;2023-09-19T12:25:51;2.07;;;1.40;;
12665;SDS011;58531;59.050;17.416;2023-09-19T12:28:21;2.67;;;1.50;;
12665;SDS011;58531;59.050;17.416;2023-09-19T12:30:53;2.73;;;1.80;;
12665;SDS011;58531;59.050;17.416;2023-09-19T12:33:23;2.40;;;1.67;;
12665;SDS011;58531;59.050;17.416;2023-09-19T12:35:52;2.40;;;1.93;;
12665;SDS011;58531;59.050;17.416;2023-09-19T12:38:25;2.30;;;1.70;;
12665;SDS011;58531;59.050;17.416;2023-09-19T12:40:54;3.33;;;1.83;;
12665;SDS011;58531;59.050;17.416;2023-09-19T12:43:25;4.70;;;1.70;;
12665;SDS011;58531;59.050;17.416;2023-09-19T12:45:52;1.70;;;1.43;;
12665;SDS011;58531;59.050;17.416;2023-09-19T12:48:20;3.43;;;1.37;;
12665;SDS011;58531;59.050;17.416;2023-09-19T12:51:02;3.73;;;1.73;;
12665;SDS011;58531;59.050;17.416;2023-09-19T12:53:31;2.93;;;1.63;;
12665;SDS011;58531;59.050;17.416;2023-09-19T12:56:01;3.93;;;1.80;;
12665;SDS011;58531;59.050;17.416;2023-09-19T12:58:31;3.17;;;1.60;;
12665;SDS011;58531;59.050;17.416;2023-09-19T13:01:00;4.83;;;1.73;;
12665;SDS011;58531;59.050;17.416;2023-09-19T13:03:28;4.87;;;1.90;;
12665;SDS011;58531;59.050;17.416;2023-09-19T13:05:56;1.90;;;1.30;;
12665;SDS011;58531;59.050;17.416;2023-09-19T13:08:28;3.17;;;2.00;;
12665;SDS011;58531;59.050;17.416;2023-09-19T13:11:10;4.73;;;1.80;;
12665;SDS011;58531;59.050;17.416;2023-09-19T13:13:39;3.53;;;1.80;;
12665;SDS011;58531;59.050;17.416;2023-09-19T13:16:09;3.30;;;1.80;;
12665;SDS011;58531;59.050;17.416;2023-09-19T13:18:43;3.67;;;2.00;;
12665;SDS011;58531;59.050;17.416;2023-09-19T13:21:16;3.20;;;1.60;;
12665;SDS011;58531;59.050;17.416;2023-09-19T13:23:52;4.27;;;1.67;;
12665;SDS011;58531;59.050;17.416;2023-09-19T13:26:24;4.20;;;1.60;;
12665;SDS011;58531;59.050;17.416;2023-09-19T13:28:51;4.70;;;1.70;;
12665;SDS011;58531;59.050;17.416;2023-09-19T13:31:18;4.07;;;1.83;;
12665;SDS011;58531;59.050;17.416;2023-09-19T13:33:44;3.30;;;1.77;;
12665;SDS011;58531;59.050;17.416;2023-09-19T13:36:12;3.23;;;1.60;;
12665;SDS011;58531;59.050;17.416;2023-09-19T13:38:39;5.27;;;1.97;;
12665;SDS011;58531;59.050;17.416;2023-09-19T13:41:09;2.30;;;1.47;;
12665;SDS011;58531;59.050;17.416;2023-09-19T13:43:36;4.90;;;1.67;;
12665;SDS011;58531;59.050;17.416;2023-09-19T13:46:04;3.90;;;1.60;;
12665;SDS011;58531;59.050;17.416;2023-09-19T13:48:32;3.37;;;1.50;;
12665;SDS011;58531;59.050;17.416;2023-09-19T13:51:01;2.73;;;1.50;;
12665;SDS011;58531;59.050;17.416;2023-09-19T13:53:28;2.77;;;1.57;;
12665;SDS011;58531;59.050;17.416;2023-09-19T13:55:55;4.33;;;1.83;;
12665;SDS011;58531;59.050;17.416;2023-09-19T13:58:23;2.07;;;1.60;;
12665;SDS011;58531;59.050;17.416;2023-09-19T14:00:50;3.97;;;1.40;;
12665;SDS011;58531;59.050;17.416;2023-09-19T14:03:20;2.70;;;1.53;;
12665;SDS011;58531;59.050;17.416;2023-09-19T14:05:47;2.47;;;1.40;;
12665;SDS011;58531;59.050;17.416;2023-09-19T14:08:16;2.47;;;1.10;;
12665;SDS011;58531;59.050;17.416;2023-09-19T14:10:43;2.63;;;1.30;;
12665;SDS011;58531;59.050;17.416;2023-09-19T14:13:10;4.87;;;1.50;;
12665;SDS011;58531;59.050;17.416;2023-09-19T14:15:40;3.57;;;1.40;;
12665;SDS011;58531;59.050;17.416;2023-09-19T14:18:07;3.70;;;1.33;;
12665;SDS011;58531;59.050;17.416;2023-09-19T14:20:37;2.30;;;1.37;;
12665;SDS011;58531;59.050;17.416;2023-09-19T14:23:04;3.67;;;1.30;;
12665;SDS011;58531;59.050;17.416;2023-09-19T14:25:33;2.60;;;1.30;;
12665;SDS011;58531;59.050;17.416;2023-09-19T14:28:01;2.80;;;1.50;;
12665;SDS011;58531;59.050;17.416;2023-09-19T14:30:28;1.90;;;1.10;;
12665;SDS011;58531;59.050;17.416;2023-09-19T14:32:56;2.90;;;1.50;;
12665;SDS011;58531;59.050;17.416;2023-09-19T14:35:23;1.93;;;1.30;;
12665;SDS011;58531;59.050;17.416;2023-09-19T14:37:50;3.30;;;1.40;;
12665;SDS011;58531;59.050;17.416;2023-09-19T14:40:17;3.40;;;1.40;;
12665;SDS011;58531;59.050;17.416;2023-09-19T14:42:45;4.40;;;1.57;;
12665;SDS011;58531;59.050;17.416;2023-09-19T14:45:13;3.53;;;1.27;;
12665;SDS011;58531;59.050;17.416;2023-09-19T14:47:43;2.83;;;1.30;;
12665;SDS011;58531;59.050;17.416;2023-09-19T14:50:11;10.47;;;1.83;;
12665;SDS011;58531;59.050;17.416;2023-09-19T14:52:38;5.83;;;1.70;;
12665;SDS011;58531;59.050;17.416;2023-09-19T14:55:06;4.33;;;1.60;;
12665;SDS011;58531;59.050;17.416;2023-09-19T14:57:39;4.40;;;1.40;;